createdAt,value
2017-11-17T00:01:05.611Z,26.00
2017-11-17T00:03:32.066Z,26.73
2017-11-17T00:05:58.502Z,26.35
2017-11-17T00:08:24.920Z,24.92
2017-11-17T00:10:51.354Z,23.08
2017-11-17T00:13:17.743Z,25.70
2017-11-17T00:15:44.906Z,24.45
2017-11-17T00:18:12.031Z,26.77
2017-11-17T00:20:39.223Z,26.02
2017-11-17T00:23:05.622Z,24.80
2017-11-17T00:25:32.006Z,24.17
2017-11-17T00:27:58.426Z,23.75
2017-11-17T00:30:24.837Z,23.75
2017-11-17T00:32:51.215Z,22.08
2017-11-17T00:35:17.650Z,22.80
2017-11-17T00:37:44.182Z,24.65
2017-11-17T00:40:10.590Z,22.40
2017-11-17T00:42:37.046Z,25.62
2017-11-17T00:45:03.462Z,22.70
2017-11-17T00:47:29.876Z,24.63
2017-11-17T00:49:57.014Z,23.80
2017-11-17T00:52:24.163Z,23.05
2017-11-17T00:54:51.309Z,21.00
2017-11-17T00:57:18.466Z,21.95
2017-11-17T00:59:44.900Z,21.95
2017-11-17T01:02:11.309Z,22.13
2017-11-17T01:04:38.468Z,21.95
2017-11-17T01:07:05.621Z,22.52
2017-11-17T01:09:32.762Z,20.48
2017-11-17T01:11:59.987Z,22.70
2017-11-17T01:14:26.393Z,22.80
2017-11-17T01:16:52.812Z,22.42
2017-11-17T01:19:19.263Z,21.75
2017-11-17T01:21:45.673Z,21.48
2017-11-17T01:24:12.127Z,25.17
2017-11-17T01:26:38.539Z,24.90
2017-11-17T01:29:04.948Z,20.98
2017-11-17T01:31:31.407Z,23.45
2017-11-17T01:33:57.878Z,23.35
2017-11-17T01:36:24.295Z,22.35
2017-11-17T01:38:50.935Z,22.15
2017-11-17T01:41:18.163Z,21.87
2017-11-17T01:43:44.602Z,22.62
2017-11-17T01:46:11.031Z,21.10
2017-11-17T01:48:37.514Z,21.80
2017-11-17T01:51:03.931Z,20.58
2017-11-17T01:53:30.362Z,20.50
2017-11-17T01:55:57.608Z,20.40
2017-11-17T01:58:24.145Z,20.20
2017-11-17T02:00:50.625Z,19.58
2017-11-17T02:03:17.123Z,21.75
2017-11-17T02:05:43.581Z,19.87
2017-11-17T02:08:10.869Z,21.35
2017-11-17T02:10:37.294Z,22.73
2017-11-17T02:13:03.787Z,24.17
2017-11-17T02:15:30.215Z,27.60
2017-11-17T02:17:56.610Z,23.42
2017-11-17T02:20:23.057Z,24.37
2017-11-17T02:22:49.554Z,23.98
2017-11-17T02:25:16.022Z,21.75
2017-11-17T02:27:42.492Z,21.27
2017-11-17T02:30:08.955Z,23.60
2017-11-17T02:32:35.470Z,22.00
2017-11-17T02:35:01.927Z,22.80
2017-11-17T02:37:28.422Z,23.42
2017-11-17T02:39:55.661Z,20.92
2017-11-17T02:42:22.096Z,22.05
2017-11-17T02:44:49.328Z,20.40
2017-11-17T02:47:15.835Z,18.80
2017-11-17T02:49:42.299Z,19.90
2017-11-17T02:52:08.804Z,20.27
2017-11-17T02:54:35.265Z,20.85
2017-11-17T02:57:01.713Z,21.30
2017-11-17T02:59:28.175Z,20.90
2017-11-17T03:01:55.354Z,22.73
2017-11-17T03:04:21.793Z,21.17
2017-11-17T03:06:48.992Z,23.73
2017-11-17T03:09:15.465Z,20.58
2017-11-17T03:11:41.878Z,21.33
2017-11-17T03:14:08.386Z,19.85
2017-11-17T03:16:35.586Z,20.70
2017-11-17T03:19:02.025Z,20.10
2017-11-17T03:21:28.482Z,20.95
2017-11-17T03:23:54.915Z,18.83
2017-11-17T03:26:21.395Z,19.48
2017-11-17T03:28:47.867Z,21.05
2017-11-17T03:31:14.324Z,17.92
2017-11-17T03:33:40.783Z,18.08
2017-11-17T03:36:07.223Z,18.65
2017-11-17T03:38:34.482Z,18.67
2017-11-17T03:41:01.653Z,20.17
2017-11-17T03:43:28.107Z,18.30
2017-11-17T03:45:54.578Z,19.08
2017-11-17T03:48:21.032Z,17.67
2017-11-17T03:50:48.227Z,17.58
2017-11-17T03:53:14.691Z,18.65
2017-11-17T03:55:41.154Z,21.10
2017-11-17T03:58:07.592Z,19.67
2017-11-17T04:00:34.046Z,19.15
2017-11-17T04:03:00.534Z,20.02
2017-11-17T04:05:26.942Z,20.23
2017-11-17T04:07:53.436Z,19.98
2017-11-17T04:10:19.901Z,21.30
2017-11-17T04:12:46.342Z,20.42
2017-11-17T04:15:12.808Z,20.85
2017-11-17T04:17:39.250Z,19.45
2017-11-17T04:20:06.410Z,19.02
2017-11-17T04:22:32.847Z,19.30
2017-11-17T04:24:59.269Z,19.60
2017-11-17T04:27:26.454Z,18.48
2017-11-17T04:29:52.883Z,18.73
2017-11-17T04:32:19.323Z,18.65
2017-11-17T04:34:45.772Z,18.35
2017-11-17T04:37:12.385Z,18.70
2017-11-17T04:39:38.815Z,19.83
2017-11-17T04:42:05.302Z,18.27
2017-11-17T04:44:32.498Z,18.20
2017-11-17T04:46:58.984Z,19.08
2017-11-17T04:49:26.192Z,19.20
2017-11-17T04:51:52.662Z,17.17
2017-11-17T04:54:19.375Z,19.23
2017-11-17T04:56:47.301Z,17.60
2017-11-17T04:59:13.752Z,19.60
2017-11-17T05:01:40.218Z,19.40
2017-11-17T05:04:06.665Z,19.70
2017-11-17T05:06:33.833Z,19.27
2017-11-17T05:09:00.306Z,20.60
2017-11-17T05:11:26.758Z,20.80
2017-11-17T05:13:53.194Z,19.85
2017-11-17T05:16:19.601Z,21.65
2017-11-17T05:18:46.031Z,19.48
2017-11-17T05:21:12.506Z,19.92
2017-11-17T05:23:38.933Z,18.92
2017-11-17T05:26:05.369Z,18.05
2017-11-17T05:28:32.532Z,21.12
2017-11-17T05:30:59.783Z,20.48
2017-11-17T05:33:26.202Z,19.60
2017-11-17T05:35:52.668Z,21.25
2017-11-17T05:38:19.141Z,20.02
2017-11-17T05:40:45.566Z,19.02
2017-11-17T05:43:12.019Z,20.27
2017-11-17T05:45:38.420Z,19.65
2017-11-17T05:48:04.844Z,21.73
2017-11-17T05:50:31.321Z,20.70
2017-11-17T05:52:57.748Z,21.73
2017-11-17T05:55:24.149Z,21.23
2017-11-17T05:57:51.290Z,20.42
2017-11-17T06:00:17.685Z,19.90
2017-11-17T06:02:44.867Z,21.60
2017-11-17T06:05:12.090Z,23.40
2017-11-17T06:07:38.535Z,21.40
2017-11-17T06:10:04.934Z,22.25
2017-11-17T06:12:32.109Z,20.65
2017-11-17T06:14:58.533Z,21.55
2017-11-17T06:17:25.092Z,20.77
2017-11-17T06:19:51.462Z,22.90
2017-11-17T06:22:17.862Z,21.27
2017-11-17T06:24:45.124Z,22.83
2017-11-17T06:27:12.313Z,22.83
2017-11-17T06:29:38.753Z,25.45
2017-11-17T06:32:05.195Z,23.70
2017-11-17T06:34:31.649Z,24.35
2017-11-17T06:36:58.123Z,22.25
2017-11-17T06:39:25.295Z,23.30
2017-11-17T06:41:52.555Z,23.42
2017-11-17T06:44:18.961Z,22.90
2017-11-17T06:46:45.374Z,21.48
2017-11-17T06:49:11.893Z,24.50
2017-11-17T06:51:38.298Z,21.58
2017-11-17T06:54:04.847Z,25.50
2017-11-17T06:56:32.015Z,23.52
2017-11-17T06:58:59.166Z,22.77
2017-11-17T07:01:26.361Z,21.45
2017-11-17T07:03:52.770Z,21.90
2017-11-17T07:06:19.214Z,20.67
2017-11-17T07:08:45.647Z,25.27
2017-11-17T07:11:12.098Z,22.37
2017-11-17T07:13:38.543Z,23.65
2017-11-17T07:16:05.298Z,24.20
2017-11-17T07:18:32.526Z,22.50
2017-11-17T07:20:58.937Z,22.70
2017-11-17T07:23:25.379Z,22.60
2017-11-17T07:25:51.785Z,21.95
2017-11-17T07:28:18.919Z,22.70
2017-11-17T07:30:46.080Z,21.50
2017-11-17T07:33:12.494Z,21.33
2017-11-17T07:35:39.695Z,21.42
2017-11-17T07:38:06.115Z,22.75
2017-11-17T07:40:32.569Z,21.92
2017-11-17T07:42:58.967Z,24.55
2017-11-17T07:45:26.141Z,24.33
2017-11-17T07:47:52.585Z,23.52
2017-11-17T07:50:19.042Z,23.87
2017-11-17T07:52:46.947Z,25.67
2017-11-17T07:55:13.388Z,26.50
2017-11-17T07:57:39.801Z,23.58
2017-11-17T08:00:06.346Z,23.17
2017-11-17T08:02:32.770Z,25.48
2017-11-17T08:04:59.946Z,24.00
2017-11-17T08:07:26.335Z,25.52
2017-11-17T08:09:52.796Z,22.77
2017-11-17T08:12:19.213Z,23.20
2017-11-17T08:14:46.380Z,24.95
2017-11-17T08:17:36.735Z,22.75
2017-11-17T08:20:03.972Z,23.20
2017-11-17T08:22:30.400Z,21.00
2017-11-17T08:24:56.858Z,20.92
2017-11-17T08:27:24.050Z,19.95
2017-11-17T08:29:50.526Z,20.92
2017-11-17T08:32:16.944Z,19.70
2017-11-17T08:34:43.388Z,21.70
2017-11-17T08:37:09.795Z,21.95
2017-11-17T08:39:36.190Z,20.37
2017-11-17T08:42:02.711Z,21.15
2017-11-17T08:44:29.879Z,19.52
2017-11-17T08:46:57.078Z,19.80
2017-11-17T08:49:23.520Z,16.83
2017-11-17T08:51:49.944Z,16.00
2017-11-17T08:54:16.452Z,15.52
2017-11-17T08:56:42.904Z,13.80
2017-11-17T08:59:09.384Z,14.45
2017-11-17T09:01:35.833Z,15.15
2017-11-17T09:04:02.318Z,14.70
2017-11-17T09:06:28.838Z,19.10
2017-11-17T09:08:55.381Z,16.65
2017-11-17T09:11:22.552Z,16.33
2017-11-17T09:13:48.994Z,16.83
2017-11-17T09:16:16.218Z,16.40
2017-11-17T09:18:42.615Z,23.85
2017-11-17T09:21:09.802Z,23.85
2017-11-17T09:23:36.246Z,23.35
2017-11-17T09:26:02.709Z,20.83
2017-11-17T09:28:29.167Z,20.15
2017-11-17T09:30:55.570Z,20.15
2017-11-17T09:33:22.052Z,15.52
2017-11-17T09:35:48.519Z,15.45
2017-11-17T09:38:14.937Z,15.48
2017-11-17T09:40:41.415Z,13.10
2017-11-17T09:43:08.555Z,13.35
2017-11-17T09:45:35.027Z,13.38
2017-11-17T09:48:01.509Z,12.82
2017-11-17T09:50:28.142Z,13.85
2017-11-17T09:52:55.315Z,13.88
2017-11-17T09:55:22.494Z,12.05
2017-11-17T09:57:48.919Z,12.37
2017-11-17T10:00:15.391Z,13.48
2017-11-17T10:02:41.823Z,13.73
2017-11-17T10:05:08.289Z,15.15
2017-11-17T10:07:35.495Z,14.32
2017-11-17T10:10:02.037Z,15.20
2017-11-17T10:12:28.474Z,14.48
2017-11-17T10:14:54.917Z,15.23
2017-11-17T10:17:22.179Z,13.90
2017-11-17T10:19:48.600Z,14.93
2017-11-17T10:22:15.107Z,13.38
2017-11-17T10:24:41.556Z,17.75
2017-11-17T10:27:07.991Z,16.55
2017-11-17T10:29:34.484Z,15.25
2017-11-17T10:32:00.962Z,15.27
2017-11-17T10:34:27.423Z,15.88
2017-11-17T10:36:54.611Z,12.20
2017-11-17T10:39:21.119Z,24.15
2017-11-17T10:41:47.543Z,15.98
2017-11-17T10:44:14.729Z,14.23
2017-11-17T10:46:41.222Z,13.82
2017-11-17T10:49:07.738Z,12.27
2017-11-17T10:51:34.206Z,13.20
2017-11-17T10:54:01.354Z,13.45
2017-11-17T10:56:29.649Z,15.00
2017-11-17T10:58:56.141Z,12.73
2017-11-17T11:01:22.586Z,14.60
2017-11-17T11:03:49.014Z,12.40
2017-11-17T11:06:15.445Z,10.82
2017-11-17T11:08:42.661Z,12.50
2017-11-17T11:11:15.217Z,13.18
2017-11-17T11:13:41.697Z,20.05
2017-11-17T11:16:08.132Z,22.73
2017-11-17T11:18:34.607Z,24.50
2017-11-17T11:21:01.807Z,21.48
2017-11-17T11:23:28.264Z,19.90
2017-11-17T11:25:55.477Z,16.02
2017-11-17T11:28:21.911Z,15.23
2017-11-17T11:30:48.378Z,20.75
2017-11-17T11:33:15.594Z,15.90
2017-11-17T11:35:42.793Z,47.80
2017-11-17T11:38:09.248Z,33.33
2017-11-17T11:40:35.671Z,16.62
2017-11-17T11:43:02.203Z,22.85
2017-11-17T11:45:28.666Z,23.17
2017-11-17T11:47:55.109Z,18.75
2017-11-17T11:50:21.575Z,12.63
2017-11-17T11:52:47.995Z,17.08
2017-11-17T11:55:15.815Z,14.52
2017-11-17T11:57:42.231Z,18.90
2017-11-17T12:00:09.387Z,14.98
2017-11-17T12:02:35.861Z,12.45
2017-11-17T12:05:02.324Z,14.13
2017-11-17T12:07:29.525Z,13.95
2017-11-17T12:09:55.977Z,17.87
2017-11-17T12:12:22.417Z,19.27
2017-11-17T12:14:48.862Z,19.25
2017-11-17T12:17:15.258Z,20.42
2017-11-17T12:19:41.742Z,18.33
2017-11-17T12:22:08.164Z,17.35
2017-11-17T12:24:34.592Z,18.33
2017-11-17T12:27:01.003Z,20.23
2017-11-17T12:29:27.428Z,19.42
2017-11-17T12:31:53.900Z,20.05
2017-11-17T12:34:20.501Z,14.65
2017-11-17T12:36:46.935Z,17.35
2017-11-17T12:39:13.431Z,14.15
2017-11-17T12:41:40.634Z,15.98
2017-11-17T12:44:07.086Z,20.55
2017-11-17T12:46:34.309Z,17.15
2017-11-17T12:49:00.816Z,16.50
2017-11-17T12:51:27.946Z,17.25
2017-11-17T12:53:55.067Z,17.80
2017-11-17T12:56:21.517Z,14.63
2017-11-17T12:58:48.700Z,12.90
2017-11-17T13:01:15.118Z,12.50
2017-11-17T13:03:42.302Z,12.43
2017-11-17T13:06:08.774Z,17.58
2017-11-17T13:08:35.220Z,16.60
2017-11-17T13:11:02.383Z,14.95
2017-11-17T13:13:29.528Z,17.15
2017-11-17T13:15:55.983Z,14.80
2017-11-17T13:18:22.420Z,11.70
2017-11-17T13:20:48.867Z,13.02
2017-11-17T13:23:15.254Z,14.35
2017-11-17T13:25:42.401Z,14.02
2017-11-17T13:28:09.577Z,14.95
2017-11-17T13:30:36.043Z,12.55
2017-11-17T13:33:03.240Z,13.25
2017-11-17T13:35:30.430Z,13.75
2017-11-17T13:37:56.830Z,14.25
2017-11-17T13:40:24.014Z,11.88
2017-11-17T13:42:50.495Z,18.35
2017-11-17T13:45:16.934Z,19.00
2017-11-17T13:47:44.166Z,16.70
2017-11-17T13:50:10.589Z,18.98
2017-11-17T13:52:37.818Z,19.90
2017-11-17T13:55:04.371Z,26.90
2017-11-17T13:57:30.797Z,17.30
2017-11-17T13:59:57.308Z,16.45
2017-11-17T14:02:23.743Z,17.58
2017-11-17T14:04:50.191Z,25.20
2017-11-17T14:07:16.632Z,17.10
2017-11-17T14:09:43.042Z,20.30
2017-11-17T14:12:09.476Z,16.62
2017-11-17T14:14:35.898Z,20.50
2017-11-17T14:17:02.370Z,18.90
2017-11-17T14:19:28.867Z,18.85
2017-11-17T14:21:56.105Z,23.12
2017-11-17T14:24:22.569Z,17.45
2017-11-17T14:26:49.510Z,16.45
2017-11-17T14:29:15.960Z,16.67
2017-11-17T14:31:42.374Z,14.65
2017-11-17T14:34:08.903Z,15.10
2017-11-17T14:36:35.415Z,15.80
2017-11-17T14:39:01.957Z,14.40
2017-11-17T14:41:28.468Z,11.85
2017-11-17T14:43:55.689Z,10.27
2017-11-17T14:46:22.088Z,12.60
2017-11-17T14:48:48.527Z,10.38
2017-11-17T14:51:15.012Z,10.32
2017-11-17T14:53:41.483Z,14.65
2017-11-17T14:56:07.942Z,14.75
2017-11-17T14:58:34.473Z,16.45
2017-11-17T15:01:01.036Z,19.30
2017-11-17T15:03:27.535Z,15.90
2017-11-17T15:05:54.046Z,20.95
2017-11-17T15:08:20.492Z,24.90
2017-11-17T15:10:46.970Z,23.42
2017-11-17T15:13:13.394Z,20.95
2017-11-17T15:15:39.878Z,25.45
2017-11-17T15:18:06.390Z,24.90
2017-11-17T15:20:33.641Z,21.92
2017-11-17T15:23:00.132Z,20.80
2017-11-17T15:25:26.618Z,23.60
2017-11-17T15:27:53.096Z,18.83
2017-11-17T15:30:19.558Z,16.87
2017-11-17T15:32:46.082Z,19.42
2017-11-17T15:35:13.472Z,19.92
2017-11-17T15:37:40.740Z,20.27
2017-11-17T15:40:07.945Z,24.30
2017-11-17T15:42:34.441Z,29.65
2017-11-17T15:45:00.852Z,18.52
2017-11-17T15:47:28.082Z,14.68
2017-11-17T15:49:55.329Z,19.83
2017-11-17T15:52:22.559Z,17.05
2017-11-17T15:54:49.030Z,19.50
2017-11-17T15:57:15.463Z,19.98
2017-11-17T15:59:42.718Z,18.00
2017-11-17T16:02:09.230Z,19.50
2017-11-17T16:04:36.431Z,19.12
2017-11-17T16:07:02.904Z,22.85
2017-11-17T16:09:29.383Z,20.02
2017-11-17T16:11:57.481Z,18.75
2017-11-17T16:14:23.941Z,26.15
2017-11-17T16:16:51.184Z,18.98
2017-11-17T16:19:17.648Z,18.08
2017-11-17T16:21:44.844Z,22.23
2017-11-17T16:24:11.330Z,16.95
2017-11-17T16:26:37.790Z,18.85
2017-11-17T16:29:04.350Z,18.27
2017-11-17T16:31:30.815Z,18.20
2017-11-17T16:33:58.056Z,18.20
2017-11-17T16:36:24.512Z,16.58
2017-11-17T16:38:51.693Z,18.45
2017-11-17T16:41:19.034Z,29.48
2017-11-17T16:43:46.252Z,25.48
2017-11-17T16:46:12.740Z,20.00
2017-11-17T16:48:39.246Z,17.35
2017-11-17T16:51:06.525Z,18.00
2017-11-17T16:53:33.057Z,17.15
2017-11-17T16:55:59.612Z,21.10
2017-11-17T16:58:26.051Z,18.12
2017-11-17T17:00:52.762Z,20.02
2017-11-17T17:03:19.976Z,20.42
2017-11-17T17:05:46.479Z,20.20
2017-11-17T17:08:13.008Z,20.25
2017-11-17T17:10:39.490Z,21.33
2017-11-17T17:13:06.760Z,22.87
2017-11-17T17:15:33.945Z,24.00
2017-11-17T17:18:01.245Z,20.85
2017-11-17T17:20:27.715Z,22.10
2017-11-17T17:22:54.167Z,19.73
2017-11-17T17:25:20.616Z,18.05
2017-11-17T17:27:47.118Z,17.90
2017-11-17T17:30:13.657Z,19.67
2017-11-17T17:32:40.194Z,18.95
2017-11-17T17:35:06.641Z,17.80
2017-11-17T17:37:33.088Z,18.50
2017-11-17T17:39:59.635Z,21.15
2017-11-17T17:42:26.080Z,27.10
2017-11-17T17:44:52.586Z,21.08
2017-11-17T17:47:19.040Z,20.52
2017-11-17T17:49:46.423Z,18.17
2017-11-17T17:52:12.958Z,18.02
2017-11-17T17:54:40.215Z,16.92
2017-11-17T17:57:06.723Z,16.80
2017-11-17T17:59:33.238Z,16.60
2017-11-17T18:01:59.758Z,15.82
2017-11-17T18:04:26.370Z,16.65
2017-11-17T18:06:52.860Z,18.95
2017-11-17T18:09:19.303Z,28.52
2017-11-17T18:11:45.800Z,26.58
2017-11-17T18:14:12.286Z,15.90
2017-11-17T18:16:39.493Z,17.05
2017-11-17T18:19:06.056Z,16.75
2017-11-17T18:21:32.572Z,21.65
2017-11-17T18:23:59.010Z,21.45
2017-11-17T18:26:25.514Z,17.50
2017-11-17T18:28:52.012Z,16.10
2017-11-17T18:31:18.636Z,18.42
2017-11-17T18:33:45.868Z,21.98
2017-11-17T18:36:12.341Z,18.10
2017-11-17T18:38:39.499Z,19.30
2017-11-17T18:41:06.970Z,17.85
2017-11-17T18:43:33.603Z,16.30
2017-11-17T18:46:00.104Z,17.30
2017-11-17T18:48:27.297Z,16.20
2017-11-17T18:50:53.751Z,18.42
2017-11-17T18:53:20.186Z,18.42
2017-11-17T18:55:46.674Z,16.58
2017-11-17T18:58:13.280Z,18.15
2017-11-17T19:00:41.082Z,28.27
2017-11-17T19:03:07.659Z,20.67
2017-11-17T19:05:34.162Z,15.45
2017-11-17T19:08:00.719Z,20.40
2017-11-17T19:10:27.315Z,22.92
2017-11-17T19:12:53.816Z,25.23
2017-11-17T19:15:20.395Z,19.45
2017-11-17T19:17:47.285Z,20.73
2017-11-17T19:20:13.816Z,19.77
2017-11-17T19:22:40.248Z,13.55
2017-11-17T19:25:06.724Z,14.60
2017-11-17T19:27:33.908Z,20.15
2017-11-17T19:30:01.632Z,15.43
2017-11-17T19:32:28.975Z,16.58
2017-11-17T19:34:57.546Z,15.82
2017-11-17T19:37:23.963Z,20.62
2017-11-17T19:39:50.519Z,26.10
2017-11-17T19:42:16.971Z,17.90
2017-11-17T19:44:43.476Z,17.00
2017-11-17T19:47:09.929Z,20.52
2017-11-17T19:49:36.339Z,16.12
2017-11-17T19:52:02.817Z,15.05
2017-11-17T19:54:30.066Z,16.80
2017-11-17T19:56:57.266Z,12.82
2017-11-17T19:59:23.699Z,12.80
2017-11-17T20:01:50.230Z,18.67
2017-11-17T20:04:16.779Z,12.43
2017-11-17T20:06:43.241Z,10.38
2017-11-17T20:09:09.660Z,10.32
2017-11-17T20:11:36.853Z,13.38
2017-11-17T20:14:03.342Z,11.95
2017-11-17T20:16:29.827Z,10.93
2017-11-17T20:18:56.298Z,12.88
2017-11-17T20:21:22.711Z,13.73
2017-11-17T20:23:49.159Z,12.68
2017-11-17T20:26:15.597Z,11.30
2017-11-17T20:28:42.113Z,14.48
2017-11-17T20:31:08.567Z,16.58
2017-11-17T20:33:35.051Z,13.23
2017-11-17T20:36:01.499Z,11.90
2017-11-17T20:38:27.947Z,16.45
2017-11-17T20:40:54.446Z,15.65
2017-11-17T20:43:21.664Z,16.25
2017-11-17T20:45:48.913Z,15.30
2017-11-17T20:48:15.357Z,14.70
2017-11-17T20:50:42.578Z,12.35
2017-11-17T20:53:09.860Z,11.30
2017-11-17T20:55:36.332Z,14.73
2017-11-17T20:58:02.812Z,13.68
2017-11-17T21:00:29.251Z,13.20
2017-11-17T21:02:56.531Z,14.43
2017-11-17T21:05:23.720Z,15.40
2017-11-17T21:07:50.146Z,12.60
2017-11-17T21:10:16.639Z,13.10
2017-11-17T21:12:43.113Z,12.70
2017-11-17T21:15:09.647Z,11.60
2017-11-17T21:17:36.151Z,10.90
2017-11-17T21:20:03.381Z,9.50
2017-11-17T21:22:29.822Z,17.83
2017-11-17T21:24:57.055Z,27.65
2017-11-17T21:27:23.589Z,12.65
2017-11-17T21:29:50.120Z,10.40
2017-11-17T21:32:16.555Z,11.07
2017-11-17T21:34:43.019Z,18.83
2017-11-17T21:37:10.162Z,19.20
2017-11-17T21:39:36.624Z,16.37
2017-11-17T21:42:03.900Z,13.00
2017-11-17T21:44:30.322Z,12.82
2017-11-17T21:46:56.736Z,25.67
2017-11-17T21:49:23.201Z,13.70
2017-11-17T21:51:49.643Z,12.30
2017-11-17T21:54:16.156Z,13.32
2017-11-17T21:56:42.578Z,13.75
2017-11-17T21:59:09.096Z,14.25
2017-11-17T22:01:36.285Z,15.68
2017-11-17T22:04:02.778Z,13.38
2017-11-17T22:06:29.931Z,14.43
2017-11-17T22:08:57.128Z,13.62
2017-11-17T22:11:24.339Z,11.45
2017-11-17T22:13:50.745Z,12.60
2017-11-17T22:16:17.212Z,12.52
2017-11-17T22:18:43.654Z,11.32
2017-11-17T22:21:10.116Z,11.77
2017-11-17T22:23:36.538Z,11.23
2017-11-17T22:26:02.952Z,13.95
2017-11-17T22:28:29.411Z,11.88
2017-11-17T22:30:55.848Z,12.70
2017-11-17T22:33:22.361Z,14.45
2017-11-17T22:35:48.794Z,13.13
2017-11-17T22:38:15.255Z,13.18
2017-11-17T22:40:41.663Z,11.48
2017-11-17T22:43:08.124Z,10.50
2017-11-17T22:45:34.550Z,9.75
2017-11-17T22:48:00.992Z,9.50
2017-11-17T22:50:27.404Z,10.55
2017-11-17T22:52:53.846Z,9.30
2017-11-17T22:55:20.286Z,11.68
2017-11-17T22:57:47.427Z,8.48
2017-11-17T23:00:14.654Z,9.77
2017-11-17T23:02:41.127Z,9.05
2017-11-17T23:05:07.607Z,8.73
2017-11-17T23:07:34.109Z,9.35
2017-11-17T23:10:01.351Z,8.70
2017-11-17T23:12:27.754Z,7.15
2017-11-17T23:14:54.223Z,7.40
2017-11-17T23:17:21.397Z,8.35
2017-11-17T23:19:48.563Z,8.55
2017-11-17T23:22:14.986Z,7.18
2017-11-17T23:24:41.399Z,8.57
2017-11-17T23:27:08.616Z,10.60
2017-11-17T23:29:35.056Z,9.73
2017-11-17T23:32:01.530Z,9.10
2017-11-17T23:34:27.982Z,9.07
2017-11-17T23:36:54.473Z,9.65
2017-11-17T23:39:20.892Z,8.95
2017-11-17T23:41:47.323Z,9.02
2017-11-17T23:44:14.546Z,8.18
2017-11-17T23:46:40.978Z,10.00
2017-11-17T23:49:07.390Z,9.00
2017-11-17T23:51:33.888Z,9.05
2017-11-17T23:54:00.401Z,8.52
2017-11-17T23:56:26.832Z,9.45
2017-11-17T23:58:54.861Z,9.40
